sensor_id;sensor_type;location;lat;lon;timestamp;pressure;altitude;pressure_sealevel;temperature;humidity
54994;BME280;40891;47.242;8.648;2023-02-10T00:02:20;98197.84;;;0.40;77.35
54994;BME280;40891;47.242;8.648;2023-02-10T00:04:46;98190.31;;;0.37;77.69
54994;BME280;40891;47.242;8.648;2023-02-10T00:07:11;98197.84;;;0.40;77.27
54994;BME280;40891;47.242;8.648;2023-02-10T00:09:36;98193.75;;;0.58;76.86
54994;BME280;40891;47.242;8.648;2023-02-10T00:12:01;98189.28;;;0.65;76.72
54994;BME280;40891;47.242;8.648;2023-02-10T00:14:28;98195.56;;;0.54;76.72
54994;BME280;40891;47.242;8.648;2023-02-10T00:16:54;98199.44;;;0.53;77.49
54994;BME280;40891;47.242;8.648;2023-02-10T00:19:20;98205.47;;;0.46;78.01
54994;BME280;40891;47.242;8.648;2023-02-10T00:21:46;98208.56;;;0.33;78.55
54994;BME280;40891;47.242;8.648;2023-02-10T00:24:11;98213.78;;;0.50;78.47
54994;BME280;40891;47.242;8.648;2023-02-10T00:26:37;98209.47;;;0.37;79.16
54994;BME280;40891;47.242;8.648;2023-02-10T00:29:03;98211.53;;;0.28;79.96
54994;BME280;40891;47.242;8.648;2023-02-10T00:31:28;98223.56;;;0.15;80.85
54994;BME280;40891;47.242;8.648;2023-02-10T00:33:54;98220.41;;;0.37;79.55
54994;BME280;40891;47.242;8.648;2023-02-10T00:36:19;98216.75;;;0.21;79.71
54994;BME280;40891;47.242;8.648;2023-02-10T00:38:46;98211.97;;;0.18;79.24
54994;BME280;40891;47.242;8.648;2023-02-10T00:41:14;98218.09;;;0.15;80.52
54994;BME280;40891;47.242;8.648;2023-02-10T00:43:41;98217.31;;;0.14;79.88
54994;BME280;40891;47.242;8.648;2023-02-10T00:46:08;98218.22;;;0.18;79.85
54994;BME280;40891;47.242;8.648;2023-02-10T00:48:34;98229.38;;;0.13;79.69
54994;BME280;40891;47.242;8.648;2023-02-10T00:50:59;98229.75;;;0.36;78.88
54994;BME280;40891;47.242;8.648;2023-02-10T00:53:25;98230.09;;;0.34;78.98
54994;BME280;40891;47.242;8.648;2023-02-10T00:55:50;98232.97;;;0.38;78.74
54994;BME280;40891;47.242;8.648;2023-02-10T00:58:16;98236.22;;;0.19;79.91
54994;BME280;40891;47.242;8.648;2023-02-10T01:00:41;98239.06;;;0.11;80.27
54994;BME280;40891;47.242;8.648;2023-02-10T01:03:07;98243.63;;;0.07;81.53
54994;BME280;40891;47.242;8.648;2023-02-10T01:05:32;98250.63;;;-0.05;81.44
54994;BME280;40891;47.242;8.648;2023-02-10T01:07:57;98246.75;;;-0.16;82.34
54994;BME280;40891;47.242;8.648;2023-02-10T01:10:23;98247.88;;;-0.17;82.76
54994;BME280;40891;47.242;8.648;2023-02-10T01:12:48;98247.75;;;-0.20;82.35
54994;BME280;40891;47.242;8.648;2023-02-10T01:15:14;98253.50;;;-0.34;83.12
54994;BME280;40891;47.242;8.648;2023-02-10T01:17:39;98255.03;;;-0.45;83.26
54994;BME280;40891;47.242;8.648;2023-02-10T01:20:05;98254.47;;;-0.50;84.02
54994;BME280;40891;47.242;8.648;2023-02-10T01:22:35;98253.19;;;-0.53;85.11
54994;BME280;40891;47.242;8.648;2023-02-10T01:25:00;98246.81;;;-0.57;85.49
54994;BME280;40891;47.242;8.648;2023-02-10T01:27:26;98260.78;;;-0.58;86.31
54994;BME280;40891;47.242;8.648;2023-02-10T01:29:52;98255.97;;;-0.61;87.65
54994;BME280;40891;47.242;8.648;2023-02-10T01:32:17;98253.94;;;-0.64;88.52
54994;BME280;40891;47.242;8.648;2023-02-10T01:34:43;98264.88;;;-0.64;89.11
54994;BME280;40891;47.242;8.648;2023-02-10T01:37:08;98270.63;;;-0.66;89.03
54994;BME280;40891;47.242;8.648;2023-02-10T01:39:34;98265.88;;;-0.69;89.38
54994;BME280;40891;47.242;8.648;2023-02-10T01:41:59;98268.78;;;-0.74;89.56
54994;BME280;40891;47.242;8.648;2023-02-10T01:46:49;98274.91;;;-0.77;90.42
54994;BME280;40891;47.242;8.648;2023-02-10T01:49:18;98271.06;;;-0.76;90.15
54994;BME280;40891;47.242;8.648;2023-02-10T01:51:49;98272.53;;;-0.79;90.60
54994;BME280;40891;47.242;8.648;2023-02-10T01:54:21;98271.72;;;-0.79;90.38
54994;BME280;40891;47.242;8.648;2023-02-10T01:56:49;98271.91;;;-0.84;90.29
54994;BME280;40891;47.242;8.648;2023-02-10T01:59:15;98272.72;;;-0.84;89.80
54994;BME280;40891;47.242;8.648;2023-02-10T02:01:43;98274.19;;;-0.86;89.76
54994;BME280;40891;47.242;8.648;2023-02-10T02:04:08;98275.19;;;-0.91;89.27
54994;BME280;40891;47.242;8.648;2023-02-10T02:06:34;98276.16;;;-0.95;89.39
54994;BME280;40891;47.242;8.648;2023-02-10T02:09:00;98273.75;;;-0.97;89.50
54994;BME280;40891;47.242;8.648;2023-02-10T02:11:49;98275.22;;;-0.99;89.06
54994;BME280;40891;47.242;8.648;2023-02-10T02:22:57;98288.13;;;-1.08;88.86
54994;BME280;40891;47.242;8.648;2023-02-10T02:28:43;98292.00;;;-1.09;87.98
54994;BME280;40891;47.242;8.648;2023-02-10T02:31:39;98295.03;;;-1.11;88.04
54994;BME280;40891;47.242;8.648;2023-02-10T02:34:28;98292.31;;;-1.11;88.36
54994;BME280;40891;47.242;8.648;2023-02-10T02:36:59;98296.75;;;-1.06;88.24
54994;BME280;40891;47.242;8.648;2023-02-10T02:39:27;98298.38;;;-1.05;87.95
54994;BME280;40891;47.242;8.648;2023-02-10T02:42:20;98291.66;;;-1.08;87.74
54994;BME280;40891;47.242;8.648;2023-02-10T02:44:50;98293.28;;;-1.15;88.11
54994;BME280;40891;47.242;8.648;2023-02-10T03:00:55;98276.63;;;-1.22;89.82
54994;BME280;40891;47.242;8.648;2023-02-10T03:03:25;98264.16;;;-1.23;89.13
54994;BME280;40891;47.242;8.648;2023-02-10T03:05:51;98271.72;;;-1.29;89.29
54994;BME280;40891;47.242;8.648;2023-02-10T03:08:16;98263.38;;;-1.32;89.84
54994;BME280;40891;47.242;8.648;2023-02-10T03:10:41;98271.09;;;-1.34;90.01
54994;BME280;40891;47.242;8.648;2023-02-10T03:13:06;98265.81;;;-1.40;89.53
54994;BME280;40891;47.242;8.648;2023-02-10T03:15:32;98263.59;;;-1.46;89.26
54994;BME280;40891;47.242;8.648;2023-02-10T03:17:57;98266.66;;;-1.48;89.64
54994;BME280;40891;47.242;8.648;2023-02-10T03:20:22;98270.50;;;-1.49;89.05
54994;BME280;40891;47.242;8.648;2023-02-10T03:22:48;98272.13;;;-1.48;89.49
54994;BME280;40891;47.242;8.648;2023-02-10T03:25:13;98270.66;;;-1.45;90.22
54994;BME280;40891;47.242;8.648;2023-02-10T03:27:39;98269.88;;;-1.46;89.95
54994;BME280;40891;47.242;8.648;2023-02-10T03:30:04;98261.03;;;-1.43;90.78
54994;BME280;40891;47.242;8.648;2023-02-10T03:32:30;98273.69;;;-1.38;90.43
54994;BME280;40891;47.242;8.648;2023-02-10T03:34:55;98272.88;;;-1.39;90.90
54994;BME280;40891;47.242;8.648;2023-02-10T03:37:20;98273.03;;;-1.35;91.59
54994;BME280;40891;47.242;8.648;2023-02-10T03:39:46;98278.50;;;-1.35;91.31
54994;BME280;40891;47.242;8.648;2023-02-10T03:42:11;98278.28;;;-1.30;91.73
54994;BME280;40891;47.242;8.648;2023-02-10T03:44:37;98281.34;;;-1.31;92.10
54994;BME280;40891;47.242;8.648;2023-02-10T03:47:02;98280.69;;;-1.28;92.37
54994;BME280;40891;47.242;8.648;2023-02-10T03:49:27;98281.53;;;-1.37;92.20
54994;BME280;40891;47.242;8.648;2023-02-10T03:51:53;98281.06;;;-1.39;91.86
54994;BME280;40891;47.242;8.648;2023-02-10T03:54:18;98282.50;;;-1.41;92.21
54994;BME280;40891;47.242;8.648;2023-02-10T03:56:43;98291.69;;;-1.46;91.86
54994;BME280;40891;47.242;8.648;2023-02-10T03:59:09;98288.50;;;-1.48;91.78
54994;BME280;40891;47.242;8.648;2023-02-10T04:01:34;98292.78;;;-1.47;92.42
54994;BME280;40891;47.242;8.648;2023-02-10T04:04:00;98294.75;;;-1.47;91.37
54994;BME280;40891;47.242;8.648;2023-02-10T04:06:25;98293.94;;;-1.48;92.55
54994;BME280;40891;47.242;8.648;2023-02-10T04:08:50;98300.19;;;-1.47;92.93
54994;BME280;40891;47.242;8.648;2023-02-10T04:11:16;98308.22;;;-1.51;92.49
54994;BME280;40891;47.242;8.648;2023-02-10T04:13:41;98313.22;;;-1.53;93.08
54994;BME280;40891;47.242;8.648;2023-02-10T04:16:10;98314.03;;;-1.61;93.62
54994;BME280;40891;47.242;8.648;2023-02-10T04:18:37;98319.63;;;-1.57;93.43
54994;BME280;40891;47.242;8.648;2023-02-10T04:21:05;98308.84;;;-1.45;91.27
54994;BME280;40891;47.242;8.648;2023-02-10T04:23:31;98316.91;;;-1.57;91.49
54994;BME280;40891;47.242;8.648;2023-02-10T04:25:58;98316.66;;;-1.73;91.38
54994;BME280;40891;47.242;8.648;2023-02-10T04:28:23;98317.81;;;-1.82;91.95
54994;BME280;40891;47.242;8.648;2023-02-10T04:30:56;98321.00;;;-1.89;91.87
54994;BME280;40891;47.242;8.648;2023-02-10T04:33:21;98317.66;;;-1.94;91.95
54994;BME280;40891;47.242;8.648;2023-02-10T04:35:48;98321.16;;;-1.94;91.56
54994;BME280;40891;47.242;8.648;2023-02-10T04:38:14;98319.59;;;-1.95;91.09
54994;BME280;40891;47.242;8.648;2023-02-10T04:40:39;98317.97;;;-1.87;90.26
54994;BME280;40891;47.242;8.648;2023-02-10T04:43:05;98317.00;;;-1.83;89.69
54994;BME280;40891;47.242;8.648;2023-02-10T04:45:31;98315.84;;;-1.82;89.17
54994;BME280;40891;47.242;8.648;2023-02-10T04:47:56;98318.09;;;-1.84;89.22
54994;BME280;40891;47.242;8.648;2023-02-10T04:50:21;98314.91;;;-1.86;88.97
54994;BME280;40891;47.242;8.648;2023-02-10T04:52:46;98307.38;;;-1.80;88.78
54994;BME280;40891;47.242;8.648;2023-02-10T04:55:12;98308.47;;;-1.81;90.85
54994;BME280;40891;47.242;8.648;2023-02-10T04:57:37;98314.41;;;-1.79;91.02
54994;BME280;40891;47.242;8.648;2023-02-10T05:00:03;98312.00;;;-1.81;91.81
54994;BME280;40891;47.242;8.648;2023-02-10T05:02:29;98315.84;;;-1.82;92.59
54994;BME280;40891;47.242;8.648;2023-02-10T05:04:55;98318.28;;;-1.80;92.82
54994;BME280;40891;47.242;8.648;2023-02-10T05:07:20;98304.94;;;-1.82;93.52
54994;BME280;40891;47.242;8.648;2023-02-10T05:09:45;98307.69;;;-1.82;94.17
54994;BME280;40891;47.242;8.648;2023-02-10T05:12:11;98308.47;;;-1.81;94.75
54994;BME280;40891;47.242;8.648;2023-02-10T05:14:36;98311.84;;;-1.84;94.76
54994;BME280;40891;47.242;8.648;2023-02-10T05:17:01;98318.75;;;-1.87;95.04
54994;BME280;40891;47.242;8.648;2023-02-10T05:19:27;98310.56;;;-1.87;95.01
54994;BME280;40891;47.242;8.648;2023-02-10T05:21:52;98305.78;;;-1.90;94.17
54994;BME280;40891;47.242;8.648;2023-02-10T05:24:18;98314.91;;;-1.86;94.65
54994;BME280;40891;47.242;8.648;2023-02-10T05:26:43;98309.47;;;-1.86;94.34
54994;BME280;40891;47.242;8.648;2023-02-10T05:29:08;98314.59;;;-1.93;93.94
54994;BME280;40891;47.242;8.648;2023-02-10T05:31:33;98318.31;;;-1.97;93.50
54994;BME280;40891;47.242;8.648;2023-02-10T05:33:59;98317.50;;;-1.98;93.30
54994;BME280;40891;47.242;8.648;2023-02-10T05:36:24;98314.16;;;-2.03;93.19
54994;BME280;40891;47.242;8.648;2023-02-10T05:38:50;98314.31;;;-2.00;92.81
54994;BME280;40891;47.242;8.648;2023-02-10T05:41:34;98315.75;;;-2.02;92.07
54994;BME280;40891;47.242;8.648;2023-02-10T05:43:59;98314.94;;;-2.03;92.19
54994;BME280;40891;47.242;8.648;2023-02-10T05:46:24;98317.34;;;-2.01;91.33
54994;BME280;40891;47.242;8.648;2023-02-10T05:48:49;98319.41;;;-1.98;91.45
54994;BME280;40891;47.242;8.648;2023-02-10T05:51:15;98311.25;;;-1.98;91.14
54994;BME280;40891;47.242;8.648;2023-02-10T05:53:40;98327.28;;;-1.97;91.13
54994;BME280;40891;47.242;8.648;2023-02-10T05:56:06;98328.41;;;-1.98;91.41
54994;BME280;40891;47.242;8.648;2023-02-10T05:58:31;98331.13;;;-1.98;91.42
54994;BME280;40891;47.242;8.648;2023-02-10T06:01:00;98330.00;;;-1.97;91.70
54994;BME280;40891;47.242;8.648;2023-02-10T06:03:26;98328.22;;;-1.93;92.63
54994;BME280;40891;47.242;8.648;2023-02-10T06:05:51;98338.50;;;-1.90;93.23
54994;BME280;40891;47.242;8.648;2023-02-10T06:08:17;98333.69;;;-1.93;92.79
54994;BME280;40891;47.242;8.648;2023-02-10T06:10:42;98349.56;;;-1.95;92.83
54994;BME280;40891;47.242;8.648;2023-02-10T06:13:08;98344.09;;;-1.95;93.80
54994;BME280;40891;47.242;8.648;2023-02-10T06:15:33;98351.63;;;-2.00;94.74
54994;BME280;40891;47.242;8.648;2023-02-10T06:17:59;98352.63;;;-1.96;94.91
54994;BME280;40891;47.242;8.648;2023-02-10T06:20:24;98354.06;;;-1.99;95.65
54994;BME280;40891;47.242;8.648;2023-02-10T06:22:49;98366.53;;;-1.98;96.38
54994;BME280;40891;47.242;8.648;2023-02-10T06:25:15;98364.00;;;-1.94;96.57
54994;BME280;40891;47.242;8.648;2023-02-10T06:27:40;98365.91;;;-1.95;97.06
54994;BME280;40891;47.242;8.648;2023-02-10T06:30:06;98374.22;;;-1.91;97.43
54994;BME280;40891;47.242;8.648;2023-02-10T06:32:32;98372.47;;;-1.96;97.55
54994;BME280;40891;47.242;8.648;2023-02-10T06:34:57;98383.69;;;-1.97;97.36
54994;BME280;40891;47.242;8.648;2023-02-10T06:37:22;98385.94;;;-1.99;98.02
54994;BME280;40891;47.242;8.648;2023-02-10T06:39:48;98382.41;;;-2.00;97.99
54994;BME280;40891;47.242;8.648;2023-02-10T06:42:13;98389.78;;;-2.00;97.98
54994;BME280;40891;47.242;8.648;2023-02-10T06:44:38;98398.28;;;-2.02;97.44
54994;BME280;40891;47.242;8.648;2023-02-10T06:47:04;98387.38;;;-2.02;96.97
54994;BME280;40891;47.242;8.648;2023-02-10T06:49:29;98387.38;;;-2.02;98.14
54994;BME280;40891;47.242;8.648;2023-02-10T06:51:54;98389.31;;;-2.02;97.91
54994;BME280;40891;47.242;8.648;2023-02-10T06:54:20;98393.66;;;-2.01;97.79
54994;BME280;40891;47.242;8.648;2023-02-10T06:56:45;98393.66;;;-2.01;97.25
54994;BME280;40891;47.242;8.648;2023-02-10T06:59:12;98395.91;;;-2.03;96.06
54994;BME280;40891;47.242;8.648;2023-02-10T07:01:37;98393.16;;;-2.03;94.69
54994;BME280;40891;47.242;8.648;2023-02-10T07:04:03;98396.38;;;-2.01;93.82
54994;BME280;40891;47.242;8.648;2023-02-10T07:06:28;98400.38;;;-1.99;93.09
54994;BME280;40891;47.242;8.648;2023-02-10T07:08:53;98398.59;;;-1.95;91.67
54994;BME280;40891;47.242;8.648;2023-02-10T07:11:19;98396.84;;;-1.91;91.14
54994;BME280;40891;47.242;8.648;2023-02-10T07:13:44;98398.13;;;-1.80;90.75
54994;BME280;40891;47.242;8.648;2023-02-10T07:16:10;98396.44;;;-1.47;89.21
54994;BME280;40891;47.242;8.648;2023-02-10T07:18:39;98390.34;;;-0.97;86.26
54994;BME280;40891;47.242;8.648;2023-02-10T07:21:05;98387.66;;;-0.47;82.54
54994;BME280;40891;47.242;8.648;2023-02-10T07:23:30;98379.38;;;0.03;79.86
54994;BME280;40891;47.242;8.648;2023-02-10T07:25:55;98375.69;;;0.64;77.66
54994;BME280;40891;47.242;8.648;2023-02-10T07:28:20;98374.28;;;1.15;74.55
54994;BME280;40891;47.242;8.648;2023-02-10T07:30:46;98364.66;;;1.57;71.97
54994;BME280;40891;47.242;8.648;2023-02-10T07:33:11;98375.41;;;2.02;68.88
54994;BME280;40891;47.242;8.648;2023-02-10T07:35:36;98373.78;;;2.41;67.29
54994;BME280;40891;47.242;8.648;2023-02-10T07:38:02;98361.25;;;2.87;65.56
54994;BME280;40891;47.242;8.648;2023-02-10T07:40:27;98354.59;;;3.34;63.56
54994;BME280;40891;47.242;8.648;2023-02-10T07:42:54;98353.47;;;3.70;62.40
54994;BME280;40891;47.242;8.648;2023-02-10T07:45:20;98348.84;;;4.51;59.90
54994;BME280;40891;47.242;8.648;2023-02-10T07:47:45;98346.66;;;5.28;57.58
54994;BME280;40891;47.242;8.648;2023-02-10T07:50:11;98341.09;;;5.50;56.06
54994;BME280;40891;47.242;8.648;2023-02-10T07:52:36;98349.78;;;5.79;55.73
54994;BME280;40891;47.242;8.648;2023-02-10T07:55:02;98344.38;;;5.60;55.71
54994;BME280;40891;47.242;8.648;2023-02-10T07:57:29;98355.50;;;5.14;54.75
54994;BME280;40891;47.242;8.648;2023-02-10T07:59:54;98357.25;;;5.26;53.13
54994;BME280;40891;47.242;8.648;2023-02-10T08:02:19;98356.94;;;5.54;52.84
54994;BME280;40891;47.242;8.648;2023-02-10T08:04:45;98359.09;;;5.67;51.41
54994;BME280;40891;47.242;8.648;2023-02-10T08:07:10;98364.69;;;4.99;53.40
54994;BME280;40891;47.242;8.648;2023-02-10T08:09:36;98373.59;;;4.28;56.24
54994;BME280;40891;47.242;8.648;2023-02-10T08:12:01;98375.50;;;3.39;60.37
54994;BME280;40891;47.242;8.648;2023-02-10T08:14:26;98377.91;;;2.78;63.93
54994;BME280;40891;47.242;8.648;2023-02-10T08:16:52;98381.28;;;2.44;61.04
54994;BME280;40891;47.242;8.648;2023-02-10T08:19:18;98375.81;;;2.16;60.85
54994;BME280;40891;47.242;8.648;2023-02-10T08:21:43;98381.00;;;2.05;62.88
54994;BME280;40891;47.242;8.648;2023-02-10T08:24:08;98376.09;;;2.39;63.48
54994;BME280;40891;47.242;8.648;2023-02-10T08:26:34;98383.69;;;2.89;62.07
54994;BME280;40891;47.242;8.648;2023-02-10T08:29:00;98383.94;;;3.46;60.20
54994;BME280;40891;47.242;8.648;2023-02-10T08:31:25;98380.00;;;4.55;57.52
54994;BME280;40891;47.242;8.648;2023-02-10T08:33:51;98372.53;;;5.95;54.63
54994;BME280;40891;47.242;8.648;2023-02-10T08:36:18;98369.34;;;7.33;49.78
54994;BME280;40891;47.242;8.648;2023-02-10T08:38:44;98361.47;;;8.86;46.19
54994;BME280;40891;47.242;8.648;2023-02-10T08:41:10;98345.16;;;10.25;42.78
54994;BME280;40891;47.242;8.648;2023-02-10T08:43:36;98341.13;;;11.17;40.94
54994;BME280;40891;47.242;8.648;2023-02-10T08:46:01;98338.94;;;11.38;41.06
54994;BME280;40891;47.242;8.648;2023-02-10T08:48:27;98341.28;;;12.28;40.53
54994;BME280;40891;47.242;8.648;2023-02-10T08:50:53;98330.97;;;12.86;38.15
54994;BME280;40891;47.242;8.648;2023-02-10T08:53:20;98329.69;;;12.94;38.89
54994;BME280;40891;47.242;8.648;2023-02-10T08:56:01;98330.94;;;13.66;36.31
54994;BME280;40891;47.242;8.648;2023-02-10T08:58:27;98319.22;;;13.51;35.60
54994;BME280;40891;47.242;8.648;2023-02-10T09:00:52;98317.13;;;14.02;35.13
54994;BME280;40891;47.242;8.648;2023-02-10T09:03:18;98313.72;;;14.53;34.46
54994;BME280;40891;47.242;8.648;2023-02-10T09:05:43;98315.84;;;14.85;33.23
54994;BME280;40891;47.242;8.648;2023-02-10T09:08:11;98313.41;;;14.67;32.23
54994;BME280;40891;47.242;8.648;2023-02-10T09:10:39;98316.06;;;14.74;31.72
54994;BME280;40891;47.242;8.648;2023-02-10T09:13:04;98309.78;;;15.22;30.47
54994;BME280;40891;47.242;8.648;2023-02-10T09:15:29;98307.63;;;15.46;30.48
54994;BME280;40891;47.242;8.648;2023-02-10T09:17:54;98306.91;;;15.42;29.74
54994;BME280;40891;47.242;8.648;2023-02-10T09:20:20;98302.94;;;15.88;29.88
54994;BME280;40891;47.242;8.648;2023-02-10T09:22:45;98311.19;;;15.79;29.84
54994;BME280;40891;47.242;8.648;2023-02-10T09:25:13;98311.56;;;15.48;30.15
54994;BME280;40891;47.242;8.648;2023-02-10T09:27:38;98323.06;;;16.44;28.96
54994;BME280;40891;47.242;8.648;2023-02-10T09:30:04;98317.03;;;16.86;27.84
54994;BME280;40891;47.242;8.648;2023-02-10T09:32:29;98313.75;;;17.76;26.09
54994;BME280;40891;47.242;8.648;2023-02-10T09:34:55;98308.78;;;18.49;24.86
54994;BME280;40891;47.242;8.648;2023-02-10T09:37:20;98297.44;;;17.84;25.36
54994;BME280;40891;47.242;8.648;2023-02-10T09:39:46;98303.38;;;18.42;24.52
54994;BME280;40891;47.242;8.648;2023-02-10T09:44:55;98300.94;;;18.09;24.35
54994;BME280;40891;47.242;8.648;2023-02-10T09:47:56;98297.84;;;18.72;23.61
54994;BME280;40891;47.242;8.648;2023-02-10T09:50:42;98304.19;;;18.42;23.66
54994;BME280;40891;47.242;8.648;2023-02-10T09:53:26;98299.81;;;19.55;22.75
54994;BME280;40891;47.242;8.648;2023-02-10T09:55:58;98292.69;;;19.99;21.65
54994;BME280;40891;47.242;8.648;2023-02-10T09:58:39;98295.53;;;19.11;22.90
54994;BME280;40891;47.242;8.648;2023-02-10T10:01:17;98300.28;;;19.53;22.49
54994;BME280;40891;47.242;8.648;2023-02-10T10:06:22;98291.41;;;19.91;21.46
54994;BME280;40891;47.242;8.648;2023-02-10T10:14:23;98288.91;;;19.93;21.70
54994;BME280;40891;47.242;8.648;2023-02-10T10:22:40;98282.19;;;21.56;19.20
54994;BME280;40891;47.242;8.648;2023-02-10T10:28:21;98280.34;;;22.38;17.90
54994;BME280;40891;47.242;8.648;2023-02-10T10:30:55;98279.28;;;22.36;18.38
54994;BME280;40891;47.242;8.648;2023-02-10T10:35:57;98269.88;;;22.68;17.48
54994;BME280;40891;47.242;8.648;2023-02-10T10:38:30;98268.38;;;21.49;20.15
54994;BME280;40891;47.242;8.648;2023-02-10T10:40:59;98265.03;;;23.82;18.21
54994;BME280;40891;47.242;8.648;2023-02-10T10:43:29;98260.63;;;23.32;18.00
54994;BME280;40891;47.242;8.648;2023-02-10T10:46:34;98251.44;;;23.37;18.26
54994;BME280;40891;47.242;8.648;2023-02-10T10:49:00;98243.84;;;23.83;17.43
54994;BME280;40891;47.242;8.648;2023-02-10T10:51:26;98233.72;;;24.43;17.49
54994;BME280;40891;47.242;8.648;2023-02-10T10:53:54;98242.94;;;24.32;17.54
54994;BME280;40891;47.242;8.648;2023-02-10T10:59:25;98239.09;;;24.61;16.77
54994;BME280;40891;47.242;8.648;2023-02-10T11:01:53;98234.03;;;24.04;17.07
54994;BME280;40891;47.242;8.648;2023-02-10T11:04:24;98228.19;;;24.33;17.06
54994;BME280;40891;47.242;8.648;2023-02-10T11:06:52;98230.66;;;23.31;17.51
54994;BME280;40891;47.242;8.648;2023-02-10T11:09:28;98230.28;;;23.38;17.86
54994;BME280;40891;47.242;8.648;2023-02-10T11:12:02;98226.94;;;24.14;17.50
54994;BME280;40891;47.242;8.648;2023-02-10T11:14:28;98217.38;;;25.20;16.90
54994;BME280;40891;47.242;8.648;2023-02-10T11:16:59;98220.28;;;25.62;17.01
54994;BME280;40891;47.242;8.648;2023-02-10T11:19:33;98226.94;;;23.94;17.54
54994;BME280;40891;47.242;8.648;2023-02-10T11:22:00;98234.03;;;23.84;18.14
54994;BME280;40891;47.242;8.648;2023-02-10T11:24:32;98211.81;;;24.74;17.05
54994;BME280;40891;47.242;8.648;2023-02-10T11:27:01;98220.88;;;23.66;18.07
54994;BME280;40891;47.242;8.648;2023-02-10T11:29:29;98215.28;;;23.52;18.16
54994;BME280;40891;47.242;8.648;2023-02-10T11:31:55;98209.03;;;24.80;17.10
54994;BME280;40891;47.242;8.648;2023-02-10T11:34:37;98201.91;;;26.28;15.88
54994;BME280;40891;47.242;8.648;2023-02-10T11:37:39;98199.31;;;25.29;15.63
54994;BME280;40891;47.242;8.648;2023-02-10T11:40:17;98207.22;;;23.50;17.69
54994;BME280;40891;47.242;8.648;2023-02-10T11:42:46;98217.81;;;23.50;17.08
54994;BME280;40891;47.242;8.648;2023-02-10T11:45:25;98200.22;;;24.78;17.32
54994;BME280;40891;47.242;8.648;2023-02-10T11:50:35;98199.16;;;25.86;16.06
54994;BME280;40891;47.242;8.648;2023-02-10T11:53:02;98192.41;;;26.86;16.10
54994;BME280;40891;47.242;8.648;2023-02-10T11:55:41;98190.28;;;26.43;15.62
54994;BME280;40891;47.242;8.648;2023-02-10T11:58:27;98189.03;;;27.05;15.36
54994;BME280;40891;47.242;8.648;2023-02-10T12:07:25;98185.47;;;26.06;15.70
54994;BME280;40891;47.242;8.648;2023-02-10T12:12:42;98184.50;;;25.25;16.97
54994;BME280;40891;47.242;8.648;2023-02-10T12:21:17;98184.72;;;24.79;17.29
54994;BME280;40891;47.242;8.648;2023-02-10T12:26:53;98158.13;;;26.59;15.44
54994;BME280;40891;47.242;8.648;2023-02-10T12:38:04;98162.47;;;25.14;16.57
54994;BME280;40891;47.242;8.648;2023-02-10T12:40:49;98162.72;;;26.17;15.53
54994;BME280;40891;47.242;8.648;2023-02-10T12:46:36;98150.56;;;25.58;15.26
54994;BME280;40891;47.242;8.648;2023-02-10T12:49:13;98147.25;;;27.02;14.96
54994;BME280;40891;47.242;8.648;2023-02-10T12:54:20;98148.53;;;26.67;14.32
54994;BME280;40891;47.242;8.648;2023-02-10T12:56:53;98136.06;;;26.70;14.38
54994;BME280;40891;47.242;8.648;2023-02-10T12:59:26;98149.13;;;25.85;14.73
54994;BME280;40891;47.242;8.648;2023-02-10T13:01:59;98138.13;;;26.25;15.18
54994;BME280;40891;47.242;8.648;2023-02-10T13:04:29;98136.78;;;25.45;15.28
54994;BME280;40891;47.242;8.648;2023-02-10T13:07:32;98137.16;;;26.78;14.48
54994;BME280;40891;47.242;8.648;2023-02-10T13:09:52;98142.38;;;25.34;16.03
54994;BME280;40891;47.242;8.648;2023-02-10T13:12:26;98122.94;;;27.69;14.51
54994;BME280;40891;47.242;8.648;2023-02-10T13:14:58;98126.69;;;27.25;15.09
54994;BME280;40891;47.242;8.648;2023-02-10T13:17:33;98124.69;;;26.92;15.23
54994;BME280;40891;47.242;8.648;2023-02-10T13:20:30;98127.94;;;28.09;14.45
54994;BME280;40891;47.242;8.648;2023-02-10T13:23:10;98139.72;;;27.04;15.18
54994;BME280;40891;47.242;8.648;2023-02-10T13:26:02;98136.34;;;27.11;15.06
54994;BME280;40891;47.242;8.648;2023-02-10T13:31:33;98141.03;;;26.86;15.14
54994;BME280;40891;47.242;8.648;2023-02-10T13:34:13;98139.94;;;26.34;15.74
54994;BME280;40891;47.242;8.648;2023-02-10T13:36:40;98145.38;;;26.43;15.71
54994;BME280;40891;47.242;8.648;2023-02-10T13:39:27;98147.44;;;25.14;16.67
54994;BME280;40891;47.242;8.648;2023-02-10T13:42:16;98140.16;;;26.19;16.22
54994;BME280;40891;47.242;8.648;2023-02-10T13:44:43;98134.50;;;26.58;16.05
54994;BME280;40891;47.242;8.648;2023-02-10T13:49:52;98144.16;;;26.77;15.63
54994;BME280;40891;47.242;8.648;2023-02-10T13:52:22;98146.69;;;26.42;15.39
54994;BME280;40891;47.242;8.648;2023-02-10T13:57:52;98143.66;;;25.76;16.18
54994;BME280;40891;47.242;8.648;2023-02-10T14:00:20;98144.34;;;26.35;15.50
54994;BME280;40891;47.242;8.648;2023-02-10T14:05:36;98147.00;;;25.26;16.76
54994;BME280;40891;47.242;8.648;2023-02-10T14:08:27;98157.00;;;25.47;16.42
54994;BME280;40891;47.242;8.648;2023-02-10T14:11:05;98156.94;;;25.95;16.41
54994;BME280;40891;47.242;8.648;2023-02-10T14:13:33;98148.22;;;26.26;15.90
54994;BME280;40891;47.242;8.648;2023-02-10T14:18:34;98158.94;;;22.37;19.21
54994;BME280;40891;47.242;8.648;2023-02-10T14:21:08;98161.31;;;22.24;19.13
54994;BME280;40891;47.242;8.648;2023-02-10T14:23:37;98149.19;;;22.67;19.37
54994;BME280;40891;47.242;8.648;2023-02-10T14:26:13;98159.91;;;22.34;19.31
54994;BME280;40891;47.242;8.648;2023-02-10T14:28:41;98157.00;;;22.14;19.70
54994;BME280;40891;47.242;8.648;2023-02-10T14:31:13;98149.31;;;23.62;17.79
54994;BME280;40891;47.242;8.648;2023-02-10T14:33:41;98146.59;;;24.45;17.39
54994;BME280;40891;47.242;8.648;2023-02-10T14:36:16;98154.50;;;23.09;18.30
54994;BME280;40891;47.242;8.648;2023-02-10T14:38:43;98144.63;;;23.05;18.83
54994;BME280;40891;47.242;8.648;2023-02-10T14:41:12;98146.75;;;23.64;18.11
54994;BME280;40891;47.242;8.648;2023-02-10T14:43:39;98150.56;;;23.61;17.96
54994;BME280;40891;47.242;8.648;2023-02-10T14:46:04;98154.44;;;22.89;18.51
54994;BME280;40891;47.242;8.648;2023-02-10T14:48:30;98151.25;;;23.16;18.64
54994;BME280;40891;47.242;8.648;2023-02-10T14:51:16;98155.41;;;22.13;19.42
54994;BME280;40891;47.242;8.648;2023-02-10T14:53:42;98154.63;;;23.55;17.93